sensor_id;sensor_type;location;lat;lon;timestamp;pressure;altitude;pressure_sealevel;temperature;humidity
13407;BME280;6774;48.208;10.766;2023-02-11T00:01:21;97433.97;;;-2.33;77.70
13407;BME280;6774;48.208;10.766;2023-02-11T00:03:51;97435.63;;;-2.32;78.06
13407;BME280;6774;48.208;10.766;2023-02-11T00:06:21;97430.59;;;-2.35;78.71
13407;BME280;6774;48.208;10.766;2023-02-11T00:08:48;97428.31;;;-2.43;79.06
13407;BME280;6774;48.208;10.766;2023-02-11T00:11:18;97438.03;;;-2.49;79.44
13407;BME280;6774;48.208;10.766;2023-02-11T00:13:47;97436.78;;;-2.61;79.15
13407;BME280;6774;48.208;10.766;2023-02-11T00:16:17;97425.13;;;-2.49;79.30
13407;BME280;6774;48.208;10.766;2023-02-11T00:18:46;97425.84;;;-2.24;79.99
13407;BME280;6774;48.208;10.766;2023-02-11T00:21:16;97420.19;;;-1.91;80.65
13407;BME280;6774;48.208;10.766;2023-02-11T00:23:46;97414.72;;;-1.65;80.35
13407;BME280;6774;48.208;10.766;2023-02-11T00:26:15;97410.31;;;-1.42;79.43
13407;BME280;6774;48.208;10.766;2023-02-11T00:28:44;97407.06;;;-1.27;78.60
13407;BME280;6774;48.208;10.766;2023-02-11T00:31:13;97403.91;;;-1.15;77.75
13407;BME280;6774;48.208;10.766;2023-02-11T00:33:41;97402.41;;;-1.02;77.24
13407;BME280;6774;48.208;10.766;2023-02-11T00:36:12;97409.00;;;-0.95;76.96
13407;BME280;6774;48.208;10.766;2023-02-11T00:38:41;97407.47;;;-0.99;77.03
13407;BME280;6774;48.208;10.766;2023-02-11T00:41:12;97404.31;;;-0.87;77.05
13407;BME280;6774;48.208;10.766;2023-02-11T00:43:40;97400.03;;;-0.88;76.84
13407;BME280;6774;48.208;10.766;2023-02-11T00:46:08;97398.94;;;-0.82;76.58
13407;BME280;6774;48.208;10.766;2023-02-11T00:48:37;97400.53;;;-0.79;76.63
13407;BME280;6774;48.208;10.766;2023-02-11T00:51:05;97402.81;;;-0.73;76.19
13407;BME280;6774;48.208;10.766;2023-02-11T00:53:33;97401.84;;;-0.71;75.96
13407;BME280;6774;48.208;10.766;2023-02-11T00:56:03;97397.53;;;-1.08;74.56
13407;BME280;6774;48.208;10.766;2023-02-11T00:58:33;97405.59;;;-1.53;73.69
13407;BME280;6774;48.208;10.766;2023-02-11T01:01:01;97419.25;;;-2.11;75.54
13407;BME280;6774;48.208;10.766;2023-02-11T01:03:30;97417.38;;;-2.07;76.06
13407;BME280;6774;48.208;10.766;2023-02-11T01:05:58;97417.56;;;-2.12;76.26
13407;BME280;6774;48.208;10.766;2023-02-11T01:08:27;97410.84;;;-2.16;76.11
13407;BME280;6774;48.208;10.766;2023-02-11T01:10:56;97412.59;;;-2.38;76.88
13407;BME280;6774;48.208;10.766;2023-02-11T01:13:25;97410.88;;;-2.60;77.08
13407;BME280;6774;48.208;10.766;2023-02-11T01:15:55;97414.88;;;-2.73;77.32
13407;BME280;6774;48.208;10.766;2023-02-11T01:18:24;97413.53;;;-2.83;77.58
13407;BME280;6774;48.208;10.766;2023-02-11T01:20:53;97415.91;;;-3.00;78.66
13407;BME280;6774;48.208;10.766;2023-02-11T01:23:22;97414.47;;;-3.07;78.90
13407;BME280;6774;48.208;10.766;2023-02-11T01:25:50;97414.34;;;-3.04;79.67
13407;BME280;6774;48.208;10.766;2023-02-11T01:28:19;97405.47;;;-2.97;79.32
13407;BME280;6774;48.208;10.766;2023-02-11T01:30:48;97402.81;;;-2.96;79.19
13407;BME280;6774;48.208;10.766;2023-02-11T01:33:17;97412.38;;;-2.98;79.75
13407;BME280;6774;48.208;10.766;2023-02-11T01:35:45;97407.97;;;-2.96;80.09
13407;BME280;6774;48.208;10.766;2023-02-11T01:38:16;97409.44;;;-2.89;80.10
13407;BME280;6774;48.208;10.766;2023-02-11T01:40:49;97407.00;;;-2.93;79.42
13407;BME280;6774;48.208;10.766;2023-02-11T01:43:17;97413.84;;;-3.14;79.43
13407;BME280;6774;48.208;10.766;2023-02-11T01:45:59;97405.28;;;-3.38;79.50
13407;BME280;6774;48.208;10.766;2023-02-11T01:48:31;97407.47;;;-3.27;79.78
13407;BME280;6774;48.208;10.766;2023-02-11T01:51:04;97405.38;;;-3.41;80.08
13407;BME280;6774;48.208;10.766;2023-02-11T01:53:35;97411.31;;;-3.39;80.02
13407;BME280;6774;48.208;10.766;2023-02-11T01:56:23;97397.13;;;-3.27;79.39
13407;BME280;6774;48.208;10.766;2023-02-11T01:59:13;97401.31;;;-3.48;79.47
13407;BME280;6774;48.208;10.766;2023-02-11T02:01:43;97396.72;;;-3.40;80.38
13407;BME280;6774;48.208;10.766;2023-02-11T02:04:17;97398.19;;;-3.33;79.48
13407;BME280;6774;48.208;10.766;2023-02-11T02:06:48;97386.91;;;-3.30;79.85
13407;BME280;6774;48.208;10.766;2023-02-11T02:09:21;97392.81;;;-3.27;79.83
13407;BME280;6774;48.208;10.766;2023-02-11T02:11:50;97384.09;;;-3.24;80.08
13407;BME280;6774;48.208;10.766;2023-02-11T02:14:18;97379.00;;;-3.26;79.99
13407;BME280;6774;48.208;10.766;2023-02-11T02:16:46;97376.06;;;-3.17;80.40
13407;BME280;6774;48.208;10.766;2023-02-11T02:19:52;97369.88;;;-3.12;79.70
13407;BME280;6774;48.208;10.766;2023-02-11T02:25:50;97360.50;;;-3.37;78.51
13407;BME280;6774;48.208;10.766;2023-02-11T02:28:44;97364.88;;;-3.62;79.11
13407;BME280;6774;48.208;10.766;2023-02-11T02:31:31;97360.34;;;-3.56;79.76
13407;BME280;6774;48.208;10.766;2023-02-11T02:34:12;97346.13;;;-3.67;80.00
13407;BME280;6774;48.208;10.766;2023-02-11T02:36:47;97349.38;;;-3.62;80.07
13407;BME280;6774;48.208;10.766;2023-02-11T02:39:21;97338.72;;;-3.53;79.75
13407;BME280;6774;48.208;10.766;2023-02-11T02:41:50;97336.94;;;-3.51;79.75
13407;BME280;6774;48.208;10.766;2023-02-11T02:44:20;97321.03;;;-3.40;80.35
13407;BME280;6774;48.208;10.766;2023-02-11T02:46:48;97321.97;;;-3.20;80.74
13407;BME280;6774;48.208;10.766;2023-02-11T02:49:17;97321.13;;;-2.98;80.76
13407;BME280;6774;48.208;10.766;2023-02-11T02:52:12;97314.88;;;-2.71;80.24
13407;BME280;6774;48.208;10.766;2023-02-11T03:00:53;97298.19;;;-2.03;77.80
13407;BME280;6774;48.208;10.766;2023-02-11T03:03:34;97285.59;;;-1.90;77.17
13407;BME280;6774;48.208;10.766;2023-02-11T03:06:07;97278.09;;;-1.77;76.29
13407;BME280;6774;48.208;10.766;2023-02-11T03:08:41;97279.25;;;-1.64;75.64
13407;BME280;6774;48.208;10.766;2023-02-11T03:11:11;97277.53;;;-1.65;75.59
13407;BME280;6774;48.208;10.766;2023-02-11T03:13:42;97294.81;;;-1.47;75.25
13407;BME280;6774;48.208;10.766;2023-02-11T03:16:14;97312.66;;;-1.78;75.71
13407;BME280;6774;48.208;10.766;2023-02-11T03:18:47;97316.38;;;-2.04;75.64
13407;BME280;6774;48.208;10.766;2023-02-11T03:21:18;97312.88;;;-2.03;75.58
13407;BME280;6774;48.208;10.766;2023-02-11T03:23:49;97322.53;;;-2.27;76.13
13407;BME280;6774;48.208;10.766;2023-02-11T03:26:22;97324.31;;;-2.29;76.63
13407;BME280;6774;48.208;10.766;2023-02-11T03:28:56;97331.69;;;-2.40;76.54
13407;BME280;6774;48.208;10.766;2023-02-11T03:31:29;97323.09;;;-2.41;76.98
13407;BME280;6774;48.208;10.766;2023-02-11T03:34:03;97319.44;;;-2.35;76.85
13407;BME280;6774;48.208;10.766;2023-02-11T03:36:39;97324.78;;;-2.40;76.71
13407;BME280;6774;48.208;10.766;2023-02-11T03:39:16;97320.81;;;-2.48;77.37
13407;BME280;6774;48.208;10.766;2023-02-11T03:41:47;97314.28;;;-2.57;76.96
13407;BME280;6774;48.208;10.766;2023-02-11T03:44:16;97304.69;;;-2.53;77.26
13407;BME280;6774;48.208;10.766;2023-02-11T03:46:49;97297.63;;;-2.50;77.08
13407;BME280;6774;48.208;10.766;2023-02-11T03:49:20;97288.47;;;-2.37;76.92
13407;BME280;6774;48.208;10.766;2023-02-11T03:51:52;97295.31;;;-2.36;76.54
13407;BME280;6774;48.208;10.766;2023-02-11T03:54:23;97293.72;;;-2.18;76.40
13407;BME280;6774;48.208;10.766;2023-02-11T03:56:56;97292.13;;;-2.02;75.78
13407;BME280;6774;48.208;10.766;2023-02-11T03:59:25;97297.53;;;-1.87;75.56
13407;BME280;6774;48.208;10.766;2023-02-11T04:01:53;97303.84;;;-1.74;75.45
13407;BME280;6774;48.208;10.766;2023-02-11T04:04:21;97304.34;;;-1.66;74.72
13407;BME280;6774;48.208;10.766;2023-02-11T04:06:51;97297.28;;;-1.62;74.25
13407;BME280;6774;48.208;10.766;2023-02-11T04:09:19;97300.78;;;-1.63;74.46
13407;BME280;6774;48.208;10.766;2023-02-11T04:11:47;97316.88;;;-1.96;74.99
13407;BME280;6774;48.208;10.766;2023-02-11T04:14:14;97319.03;;;-2.06;75.33
13407;BME280;6774;48.208;10.766;2023-02-11T04:16:42;97332.28;;;-2.13;76.39
13407;BME280;6774;48.208;10.766;2023-02-11T04:19:11;97324.22;;;-2.26;76.08
13407;BME280;6774;48.208;10.766;2023-02-11T04:21:38;97319.44;;;-2.35;76.34
13407;BME280;6774;48.208;10.766;2023-02-11T04:24:08;97319.50;;;-2.37;76.54
13407;BME280;6774;48.208;10.766;2023-02-11T04:26:36;97319.44;;;-2.35;76.79
13407;BME280;6774;48.208;10.766;2023-02-11T04:29:04;97327.06;;;-2.32;76.77
13407;BME280;6774;48.208;10.766;2023-02-11T04:31:32;97348.56;;;-2.32;77.31
13407;BME280;6774;48.208;10.766;2023-02-11T04:34:00;97350.31;;;-2.32;77.01
13407;BME280;6774;48.208;10.766;2023-02-11T04:36:28;97353.75;;;-2.32;76.82
13407;BME280;6774;48.208;10.766;2023-02-11T04:38:55;97355.69;;;-2.37;77.03
13407;BME280;6774;48.208;10.766;2023-02-11T04:41:25;97362.66;;;-2.39;77.50
13407;BME280;6774;48.208;10.766;2023-02-11T04:43:53;97370.47;;;-2.40;77.56
13407;BME280;6774;48.208;10.766;2023-02-11T04:46:21;97371.25;;;-2.38;77.46
13407;BME280;6774;48.208;10.766;2023-02-11T04:48:49;97367.78;;;-2.37;77.45
13407;BME280;6774;48.208;10.766;2023-02-11T04:51:16;97375.53;;;-2.37;77.24
13407;BME280;6774;48.208;10.766;2023-02-11T04:53:44;97371.91;;;-2.33;77.01
13407;BME280;6774;48.208;10.766;2023-02-11T04:56:12;97365.75;;;-2.31;77.13
13407;BME280;6774;48.208;10.766;2023-02-11T04:58:42;97371.53;;;-2.24;77.02
13407;BME280;6774;48.208;10.766;2023-02-11T05:01:11;97366.03;;;-2.16;76.81
13407;BME280;6774;48.208;10.766;2023-02-11T05:03:40;97357.91;;;-2.07;76.59
13407;BME280;6774;48.208;10.766;2023-02-11T05:06:09;97360.94;;;-1.97;76.43
13407;BME280;6774;48.208;10.766;2023-02-11T05:08:38;97351.16;;;-1.91;76.00
13407;BME280;6774;48.208;10.766;2023-02-11T05:11:06;97356.28;;;-1.89;75.68
13407;BME280;6774;48.208;10.766;2023-02-11T05:13:34;97354.59;;;-1.90;75.48
13407;BME280;6774;48.208;10.766;2023-02-11T05:16:04;97352.78;;;-1.88;75.59
13407;BME280;6774;48.208;10.766;2023-02-11T05:18:32;97350.81;;;-1.83;75.62
13407;BME280;6774;48.208;10.766;2023-02-11T05:21:04;97348.75;;;-1.75;75.68
13407;BME280;6774;48.208;10.766;2023-02-11T05:23:32;97346.03;;;-1.72;75.43
13407;BME280;6774;48.208;10.766;2023-02-11T05:26:00;97350.00;;;-1.65;75.45
13407;BME280;6774;48.208;10.766;2023-02-11T05:28:29;97349.91;;;-1.62;75.49
13407;BME280;6774;48.208;10.766;2023-02-11T05:30:58;97348.78;;;-1.56;75.46
13407;BME280;6774;48.208;10.766;2023-02-11T05:33:27;97342.00;;;-1.59;75.75
13407;BME280;6774;48.208;10.766;2023-02-11T05:35:57;97347.00;;;-1.56;76.59
13407;BME280;6774;48.208;10.766;2023-02-11T05:38:26;97348.66;;;-1.53;76.96
13407;BME280;6774;48.208;10.766;2023-02-11T05:40:55;97349.34;;;-1.50;77.50
13407;BME280;6774;48.208;10.766;2023-02-11T05:43:23;97347.25;;;-1.41;77.08
13407;BME280;6774;48.208;10.766;2023-02-11T05:45:51;97335.38;;;-1.46;77.55
13407;BME280;6774;48.208;10.766;2023-02-11T05:48:20;97338.44;;;-1.37;77.76
13407;BME280;6774;48.208;10.766;2023-02-11T05:50:49;97339.97;;;-1.33;77.29
13407;BME280;6774;48.208;10.766;2023-02-11T05:53:17;97337.59;;;-1.19;76.56
13407;BME280;6774;48.208;10.766;2023-02-11T05:55:45;97330.19;;;-1.08;75.82
13407;BME280;6774;48.208;10.766;2023-02-11T05:58:13;97315.16;;;-1.01;76.04
13407;BME280;6774;48.208;10.766;2023-02-11T06:00:41;97324.56;;;-0.99;75.33
13407;BME280;6774;48.208;10.766;2023-02-11T06:03:08;97322.75;;;-0.97;76.63
13407;BME280;6774;48.208;10.766;2023-02-11T06:05:37;97319.50;;;-1.02;78.02
13407;BME280;6774;48.208;10.766;2023-02-11T06:08:06;97314.88;;;-0.95;77.20
13407;BME280;6774;48.208;10.766;2023-02-11T06:10:34;97300.72;;;-0.88;77.44
13407;BME280;6774;48.208;10.766;2023-02-11T06:13:01;97291.22;;;-0.88;76.94
13407;BME280;6774;48.208;10.766;2023-02-11T06:15:29;97289.09;;;-0.79;75.88
13407;BME280;6774;48.208;10.766;2023-02-11T06:17:57;97292.72;;;-0.83;75.21
13407;BME280;6774;48.208;10.766;2023-02-11T06:20:25;97306.31;;;-0.78;74.81
13407;BME280;6774;48.208;10.766;2023-02-11T06:22:52;97304.31;;;-0.73;74.19
13407;BME280;6774;48.208;10.766;2023-02-11T06:25:22;97325.97;;;-0.74;74.64
13407;BME280;6774;48.208;10.766;2023-02-11T06:27:49;97329.78;;;-0.64;74.44
13407;BME280;6774;48.208;10.766;2023-02-11T06:30:17;97328.84;;;-0.62;75.66
13407;BME280;6774;48.208;10.766;2023-02-11T06:32:45;97330.72;;;-0.65;76.13
13407;BME280;6774;48.208;10.766;2023-02-11T06:35:13;97319.13;;;-0.58;75.70
13407;BME280;6774;48.208;10.766;2023-02-11T06:37:41;97311.84;;;-0.50;76.03
13407;BME280;6774;48.208;10.766;2023-02-11T06:40:10;97318.78;;;-0.50;76.02
13407;BME280;6774;48.208;10.766;2023-02-11T06:42:39;97315.19;;;-0.48;75.70
13407;BME280;6774;48.208;10.766;2023-02-11T06:45:08;97314.88;;;-0.42;75.74
13407;BME280;6774;48.208;10.766;2023-02-11T06:47:36;97312.75;;;-0.34;74.30
13407;BME280;6774;48.208;10.766;2023-02-11T06:50:07;97289.09;;;-0.28;73.49
13407;BME280;6774;48.208;10.766;2023-02-11T06:52:37;97290.53;;;-0.22;73.29
13407;BME280;6774;48.208;10.766;2023-02-11T06:55:05;97298.50;;;-0.25;72.79
13407;BME280;6774;48.208;10.766;2023-02-11T06:57:33;97308.31;;;-0.14;71.71
13407;BME280;6774;48.208;10.766;2023-02-11T07:00:03;97308.16;;;-0.11;71.01
13407;BME280;6774;48.208;10.766;2023-02-11T07:02:31;97313.03;;;-0.05;71.32
13407;BME280;6774;48.208;10.766;2023-02-11T07:04:59;97305.09;;;-0.02;71.20
13407;BME280;6774;48.208;10.766;2023-02-11T07:07:27;97316.25;;;0.00;70.43
13407;BME280;6774;48.208;10.766;2023-02-11T07:09:59;97308.47;;;0.00;70.26
13407;BME280;6774;48.208;10.766;2023-02-11T07:12:28;97328.31;;;-0.16;71.80
13407;BME280;6774;48.208;10.766;2023-02-11T07:14:56;97325.09;;;-0.04;72.40
13407;BME280;6774;48.208;10.766;2023-02-11T07:17:25;97310.06;;;0.03;72.55
13407;BME280;6774;48.208;10.766;2023-02-11T07:19:53;97301.94;;;0.09;71.92
13407;BME280;6774;48.208;10.766;2023-02-11T07:22:21;97313.47;;;0.20;71.33
13407;BME280;6774;48.208;10.766;2023-02-11T07:24:49;97316.97;;;0.19;72.58
13407;BME280;6774;48.208;10.766;2023-02-11T07:27:17;97331.94;;;0.14;73.42
13407;BME280;6774;48.208;10.766;2023-02-11T07:29:45;97323.38;;;0.30;73.22
13407;BME280;6774;48.208;10.766;2023-02-11T07:32:14;97330.25;;;0.31;71.92
13407;BME280;6774;48.208;10.766;2023-02-11T07:34:43;97323.66;;;0.41;72.94
13407;BME280;6774;48.208;10.766;2023-02-11T07:37:11;97332.44;;;0.54;71.67
13407;BME280;6774;48.208;10.766;2023-02-11T07:39:38;97336.66;;;0.56;70.79
13407;BME280;6774;48.208;10.766;2023-02-11T07:42:06;97327.13;;;0.57;71.38
13407;BME280;6774;48.208;10.766;2023-02-11T07:44:34;97330.63;;;0.56;71.36
13407;BME280;6774;48.208;10.766;2023-02-11T07:47:03;97323.09;;;0.67;71.56
13407;BME280;6774;48.208;10.766;2023-02-11T07:49:31;97319.31;;;0.73;71.36
13407;BME280;6774;48.208;10.766;2023-02-11T07:52:00;97328.56;;;0.78;69.71
13407;BME280;6774;48.208;10.766;2023-02-11T07:54:28;97324.09;;;0.80;70.57
13407;BME280;6774;48.208;10.766;2023-02-11T07:56:56;97330.16;;;0.97;68.67
13407;BME280;6774;48.208;10.766;2023-02-11T07:59:24;97339.22;;;1.05;68.33
13407;BME280;6774;48.208;10.766;2023-02-11T08:01:53;97332.16;;;1.23;68.60
13407;BME280;6774;48.208;10.766;2023-02-11T08:04:21;97334.31;;;1.47;68.19
13407;BME280;6774;48.208;10.766;2023-02-11T08:06:49;97314.97;;;1.66;68.18
13407;BME280;6774;48.208;10.766;2023-02-11T08:09:19;97311.94;;;1.74;66.80
13407;BME280;6774;48.208;10.766;2023-02-11T08:11:47;97310.66;;;1.95;65.89
13407;BME280;6774;48.208;10.766;2023-02-11T08:14:15;97296.56;;;2.14;65.13
13407;BME280;6774;48.208;10.766;2023-02-11T08:16:43;97290.22;;;2.18;65.29
13407;BME280;6774;48.208;10.766;2023-02-11T08:19:13;97291.34;;;2.28;64.97
13407;BME280;6774;48.208;10.766;2023-02-11T08:21:41;97278.13;;;2.17;64.97
13407;BME280;6774;48.208;10.766;2023-02-11T08:24:10;97271.06;;;2.19;64.71
13407;BME280;6774;48.208;10.766;2023-02-11T08:26:40;97269.66;;;2.27;64.26
13407;BME280;6774;48.208;10.766;2023-02-11T08:29:11;97287.44;;;2.35;64.09
13407;BME280;6774;48.208;10.766;2023-02-11T08:31:42;97280.81;;;2.44;63.79
13407;BME280;6774;48.208;10.766;2023-02-11T08:34:11;97278.13;;;2.45;63.92
13407;BME280;6774;48.208;10.766;2023-02-11T08:36:41;97280.72;;;2.60;64.37
13407;BME280;6774;48.208;10.766;2023-02-11T08:39:13;97273.53;;;2.63;65.20
13407;BME280;6774;48.208;10.766;2023-02-11T08:41:47;97269.63;;;2.56;64.69
13407;BME280;6774;48.208;10.766;2023-02-11T08:44:16;97287.44;;;2.35;66.02
13407;BME280;6774;48.208;10.766;2023-02-11T08:46:44;97290.22;;;2.46;67.18
13407;BME280;6774;48.208;10.766;2023-02-11T08:49:13;97299.50;;;2.65;67.22
13407;BME280;6774;48.208;10.766;2023-02-11T08:51:40;97295.22;;;2.78;67.25
13407;BME280;6774;48.208;10.766;2023-02-11T08:54:08;97290.53;;;2.97;66.97
13407;BME280;6774;48.208;10.766;2023-02-11T08:56:37;97306.75;;;2.88;67.05
13407;BME280;6774;48.208;10.766;2023-02-11T08:59:07;97307.91;;;2.41;69.73
13407;BME280;6774;48.208;10.766;2023-02-11T09:01:36;97313.09;;;2.55;69.86
13407;BME280;6774;48.208;10.766;2023-02-11T09:04:04;97322.06;;;2.66;71.83
13407;BME280;6774;48.208;10.766;2023-02-11T09:06:32;97326.66;;;3.03;71.42
13407;BME280;6774;48.208;10.766;2023-02-11T09:08:59;97308.81;;;4.29;67.99
13407;BME280;6774;48.208;10.766;2023-02-11T09:11:30;97305.84;;;4.72;65.66
13407;BME280;6774;48.208;10.766;2023-02-11T09:13:58;97307.59;;;5.21;63.81
13407;BME280;6774;48.208;10.766;2023-02-11T09:16:32;97309.69;;;4.92;63.58
13407;BME280;6774;48.208;10.766;2023-02-11T09:19:02;97305.03;;;5.80;64.75
13407;BME280;6774;48.208;10.766;2023-02-11T09:21:30;97314.84;;;7.13;60.85
13407;BME280;6774;48.208;10.766;2023-02-11T09:23:58;97308.28;;;8.15;58.37
13407;BME280;6774;48.208;10.766;2023-02-11T09:26:27;97314.38;;;7.84;55.58
13407;BME280;6774;48.208;10.766;2023-02-11T09:28:56;97310.47;;;7.46;57.42
13407;BME280;6774;48.208;10.766;2023-02-11T09:31:26;97295.50;;;7.03;56.75
13407;BME280;6774;48.208;10.766;2023-02-11T09:33:58;97287.69;;;6.81;56.50
13407;BME280;6774;48.208;10.766;2023-02-11T09:36:29;97288.63;;;6.57;57.51
13407;BME280;6774;48.208;10.766;2023-02-11T09:39:00;97282.53;;;6.23;58.73
13407;BME280;6774;48.208;10.766;2023-02-11T09:41:41;97281.47;;;5.80;59.62
13407;BME280;6774;48.208;10.766;2023-02-11T09:44:17;97280.72;;;5.42;60.60
13407;BME280;6774;48.208;10.766;2023-02-11T09:46:52;97281.53;;;5.19;60.98
13407;BME280;6774;48.208;10.766;2023-02-11T09:49:37;97276.97;;;5.10;61.91
13407;BME280;6774;48.208;10.766;2023-02-11T09:52:12;97272.75;;;4.96;62.42
13407;BME280;6774;48.208;10.766;2023-02-11T09:54:53;97270.63;;;5.01;63.71
13407;BME280;6774;48.208;10.766;2023-02-11T09:57:23;97270.06;;;5.09;64.15
13407;BME280;6774;48.208;10.766;2023-02-11T09:59:55;97273.19;;;5.62;61.95
13407;BME280;6774;48.208;10.766;2023-02-11T10:02:26;97261.59;;;5.88;62.26
13407;BME280;6774;48.208;10.766;2023-02-11T10:05:19;97261.66;;;5.99;59.35
13407;BME280;6774;48.208;10.766;2023-02-11T10:07:57;97269.63;;;5.74;59.99
13407;BME280;6774;48.208;10.766;2023-02-11T10:10:38;97273.81;;;5.41;61.40
13407;BME280;6774;48.208;10.766;2023-02-11T10:13:30;97268.75;;;5.27;60.70
13407;BME280;6774;48.208;10.766;2023-02-11T10:16:07;97259.63;;;5.68;60.34
13407;BME280;6774;48.208;10.766;2023-02-11T10:18:45;97260.38;;;5.81;59.59
13407;BME280;6774;48.208;10.766;2023-02-11T10:21:28;97251.63;;;5.93;58.50
13407;BME280;6774;48.208;10.766;2023-02-11T10:24:02;97255.81;;;5.72;58.08
13407;BME280;6774;48.208;10.766;2023-02-11T10:26:32;97261.31;;;5.69;59.43
13407;BME280;6774;48.208;10.766;2023-02-11T10:29:12;97270.63;;;5.84;58.00
13407;BME280;6774;48.208;10.766;2023-02-11T10:31:45;97258.06;;;5.65;59.84
13407;BME280;6774;48.208;10.766;2023-02-11T10:34:14;97264.28;;;5.40;59.04
13407;BME280;6774;48.208;10.766;2023-02-11T10:36:44;97268.16;;;5.94;59.56
13407;BME280;6774;48.208;10.766;2023-02-11T10:39:13;97261.88;;;5.61;59.15
13407;BME280;6774;48.208;10.766;2023-02-11T10:41:43;97275.66;;;5.87;58.67
13407;BME280;6774;48.208;10.766;2023-02-11T10:44:22;97268.19;;;5.59;59.64
13407;BME280;6774;48.208;10.766;2023-02-11T10:46:52;97268.44;;;5.67;59.42
13407;BME280;6774;48.208;10.766;2023-02-11T10:49:36;97266.41;;;5.70;59.82
13407;BME280;6774;48.208;10.766;2023-02-11T10:52:19;97253.09;;;6.09;58.24
13407;BME280;6774;48.208;10.766;2023-02-11T10:55:13;97248.81;;;6.64;58.16
13407;BME280;6774;48.208;10.766;2023-02-11T10:57:49;97243.69;;;7.28;54.84
13407;BME280;6774;48.208;10.766;2023-02-11T11:00:33;97248.59;;;6.44;57.80
13407;BME280;6774;48.208;10.766;2023-02-11T11:03:06;97251.69;;;6.61;58.42
13407;BME280;6774;48.208;10.766;2023-02-11T11:05:45;97243.06;;;6.81;56.47
13407;BME280;6774;48.208;10.766;2023-02-11T11:08:16;97241.19;;;6.72;57.37
13407;BME280;6774;48.208;10.766;2023-02-11T11:10:45;97244.03;;;6.80;57.33
13407;BME280;6774;48.208;10.766;2023-02-11T11:13:32;97236.72;;;6.95;57.44
13407;BME280;6774;48.208;10.766;2023-02-11T11:16:22;97232.56;;;6.92;58.35
13407;BME280;6774;48.208;10.766;2023-02-11T11:18:52;97233.84;;;7.09;57.71
13407;BME280;6774;48.208;10.766;2023-02-11T11:21:22;97227.19;;;7.05;56.26
13407;BME280;6774;48.208;10.766;2023-02-11T11:23:56;97215.84;;;7.04;55.60
13407;BME280;6774;48.208;10.766;2023-02-11T11:26:26;97217.63;;;6.93;55.93
13407;BME280;6774;48.208;10.766;2023-02-11T11:28:58;97220.84;;;7.07;56.26
13407;BME280;6774;48.208;10.766;2023-02-11T11:31:30;97222.97;;;7.02;57.08
13407;BME280;6774;48.208;10.766;2023-02-11T11:34:04;97221.22;;;7.35;56.08
13407;BME280;6774;48.208;10.766;2023-02-11T11:36:40;97212.34;;;7.89;55.42
13407;BME280;6774;48.208;10.766;2023-02-11T11:39:21;97212.56;;;8.27;55.91
13407;BME280;6774;48.208;10.766;2023-02-11T11:41:52;97210.34;;;9.13;52.61
13407;BME280;6774;48.208;10.766;2023-02-11T11:44:25;97208.56;;;9.62;51.33
13407;BME280;6774;48.208;10.766;2023-02-11T11:47:13;97207.59;;;9.15;51.65
13407;BME280;6774;48.208;10.766;2023-02-11T11:49:46;97222.44;;;9.35;51.76
13407;BME280;6774;48.208;10.766;2023-02-11T11:52:19;97215.66;;;8.73;52.60
13407;BME280;6774;48.208;10.766;2023-02-11T11:54:58;97221.97;;;8.30;53.31
13407;BME280;6774;48.208;10.766;2023-02-11T11:57:27;97214.59;;;8.45;53.72
13407;BME280;6774;48.208;10.766;2023-02-11T11:59:56;97210.00;;;8.16;53.97
13407;BME280;6774;48.208;10.766;2023-02-11T12:02:43;97203.06;;;8.76;54.33
13407;BME280;6774;48.208;10.766;2023-02-11T12:05:24;97196.34;;;9.41;52.35
13407;BME280;6774;48.208;10.766;2023-02-11T12:08:01;97191.78;;;9.63;51.76
13407;BME280;6774;48.208;10.766;2023-02-11T12:10:47;97192.50;;;10.12;51.33
13407;BME280;6774;48.208;10.766;2023-02-11T12:13:24;97207.47;;;10.31;50.01
13407;BME280;6774;48.208;10.766;2023-02-11T12:16:02;97198.53;;;10.41;50.03
13407;BME280;6774;48.208;10.766;2023-02-11T12:18:44;97189.91;;;10.02;49.35
13407;BME280;6774;48.208;10.766;2023-02-11T12:21:23;97195.66;;;9.59;52.13
13407;BME280;6774;48.208;10.766;2023-02-11T12:24:06;97194.25;;;9.74;50.46
13407;BME280;6774;48.208;10.766;2023-02-11T12:26:46;97189.84;;;9.36;51.83
13407;BME280;6774;48.208;10.766;2023-02-11T12:29:25;97189.28;;;9.61;50.90
13407;BME280;6774;48.208;10.766;2023-02-11T12:32:07;97180.78;;;8.80;52.04
13407;BME280;6774;48.208;10.766;2023-02-11T12:35:06;97177.38;;;9.19;51.49
13407;BME280;6774;48.208;10.766;2023-02-11T12:37:47;97181.28;;;8.24;51.94
13407;BME280;6774;48.208;10.766;2023-02-11T12:40:24;97193.03;;;8.51;53.03
13407;BME280;6774;48.208;10.766;2023-02-11T12:43:16;97187.63;;;9.31;51.32
13407;BME280;6774;48.208;10.766;2023-02-11T12:46:03;97176.28;;;10.53;48.48
13407;BME280;6774;48.208;10.766;2023-02-11T12:48:50;97177.16;;;10.99;47.11
13407;BME280;6774;48.208;10.766;2023-02-11T12:51:27;97169.25;;;10.72;48.75
13407;BME280;6774;48.208;10.766;2023-02-11T12:54:16;97168.25;;;11.36;47.55
13407;BME280;6774;48.208;10.766;2023-02-11T12:56:51;97166.97;;;10.77;47.48
13407;BME280;6774;48.208;10.766;2023-02-11T13:02:22;97152.16;;;11.11;48.74
13407;BME280;6774;48.208;10.766;2023-02-11T13:04:52;97154.97;;;10.65;48.33
13407;BME280;6774;48.208;10.766;2023-02-11T13:07:26;97147.38;;;10.15;48.29
13407;BME280;6774;48.208;10.766;2023-02-11T13:09:58;97153.66;;;10.04;49.02
13407;BME280;6774;48.208;10.766;2023-02-11T13:12:29;97147.66;;;9.65;50.00
13407;BME280;6774;48.208;10.766;2023-02-11T13:15:18;97149.88;;;9.69;49.73
13407;BME280;6774;48.208;10.766;2023-02-11T13:17:55;97142.28;;;10.04;49.44
13407;BME280;6774;48.208;10.766;2023-02-11T13:20:34;97140.25;;;10.35;47.18
13407;BME280;6774;48.208;10.766;2023-02-11T13:23:11;97132.88;;;10.66;48.18
13407;BME280;6774;48.208;10.766;2023-02-11T13:25:44;97131.16;;;10.74;47.58
13407;BME280;6774;48.208;10.766;2023-02-11T13:28:29;97119.31;;;10.96;47.26
13407;BME280;6774;48.208;10.766;2023-02-11T13:31:03;97123.38;;;10.73;47.43
13407;BME280;6774;48.208;10.766;2023-02-11T13:33:34;97124.94;;;10.66;46.43
13407;BME280;6774;48.208;10.766;2023-02-11T13:36:14;97129.72;;;10.35;48.82
13407;BME280;6774;48.208;10.766;2023-02-11T13:38:51;97129.84;;;9.86;49.03
13407;BME280;6774;48.208;10.766;2023-02-11T13:41:25;97126.53;;;9.84;49.82
13407;BME280;6774;48.208;10.766;2023-02-11T13:43:59;97119.22;;;10.15;48.23